Time;durP1;ratioP1;P1;durP2;ratioP2;P2;SDS_P1;SDS_P2;PMS_P1;PMS_P2;Temp;Humidity;BMP_temperature;BMP_pressure;BME280_temperature;BME280_humidity;BME280_pressure;Samples;Min_cycle;Max_cycle;Signal;HPM_P1;HPM_P2
2023/05/22 00:01:19;;;;;;;9.13;8.20;;;13.40;1.00;14.00;93815.00;;;;7395251;19;20170;-75
2023/05/22 00:03:53;;;;;;;9.60;8.30;;;13.30;1.00;13.80;93835.00;;;;7397309;19;20598;-76
2023/05/22 00:06:22;;;;;;;9.98;8.18;;;13.30;1.00;14.10;93821.00;;;;7396114;19;20121;-74
2023/05/22 00:09:11;;;;;;;8.93;8.02;;;13.20;1.00;14.30;93792.00;;;;7396962;19;20148;-74
2023/05/22 00:11:47;;;;;;;9.30;7.60;;;13.30;1.00;14.40;93836.00;;;;7396956;19;20194;-75
2023/05/22 00:14:22;;;;;;;11.23;7.25;;;13.30;1.00;14.40;93801.00;;;;7397581;19;20125;-74
2023/05/22 00:16:57;;;;;;;12.98;7.97;;;13.40;1.00;14.60;93822.00;;;;7394914;19;20139;-74
2023/05/22 00:19:31;;;;;;;9.52;7.30;;;13.60;1.00;14.60;93828.00;;;;7397608;19;20131;-75
2023/05/22 00:22:06;;;;;;;9.02;7.95;;;13.60;1.00;14.70;93802.00;;;;7396997;19;20138;-74
2023/05/22 00:24:40;;;;;;;9.00;7.80;;;13.70;1.00;14.60;93829.00;;;;7396838;19;20220;-74
2023/05/22 00:27:07;;;;;;;13.27;8.18;;;13.80;1.00;14.50;93807.00;;;;7395270;19;20196;-76
2023/05/22 00:29:40;;;;;;;9.35;7.97;;;13.80;1.00;14.30;93828.00;;;;7399158;19;20180;-75
2023/05/22 00:32:08;;;;;;;10.68;8.43;;;13.80;1.00;14.70;93814.00;;;;7402114;19;20616;-75
2023/05/22 00:34:41;;;;;;;9.15;8.00;;;13.80;1.00;15.10;93816.00;;;;7402617;19;20149;-77
2023/05/22 00:37:18;;;;;;;10.27;8.65;;;13.90;1.00;15.40;93804.00;;;;7401148;19;20142;-75
2023/05/22 00:39:52;;;;;;;11.38;8.30;;;14.10;99.90;15.40;93820.00;;;;7403463;19;20188;-74
2023/05/22 00:42:26;;;;;;;13.27;7.90;;;14.20;99.90;15.70;93815.00;;;;7403258;19;20161;-75
2023/05/22 00:44:53;;;;;;;10.13;8.30;;;14.40;99.90;15.60;93805.00;;;;7401752;19;20133;-75
2023/05/22 00:47:27;;;;;;;9.27;8.20;;;14.60;99.90;15.50;93808.00;;;;7398768;19;20145;-75
2023/05/22 00:50:05;;;;;;;9.48;8.25;;;14.70;99.90;15.30;93809.00;;;;7403245;19;20556;-78
2023/05/22 00:52:36;;;;;;;10.00;8.57;;;14.70;99.90;15.20;93777.00;;;;7403444;19;20149;-75
2023/05/22 00:55:12;;;;;;;10.90;8.55;;;14.60;99.90;15.30;93777.00;;;;7403184;19;20160;-75
2023/05/22 00:57:40;;;;;;;12.10;8.20;;;14.60;99.90;15.00;93806.00;;;;7400271;19;20168;-74
2023/05/22 01:00:15;;;;;;;9.45;7.93;;;14.60;99.90;14.90;93798.00;;;;7402520;19;20137;-75
2023/05/22 01:02:50;;;;;;;11.77;8.98;;;14.50;99.90;14.90;93812.00;;;;7402625;19;20149;-76
2023/05/22 01:05:24;;;;;;;13.52;8.35;;;14.40;99.90;14.90;93808.00;;;;7401115;19;20147;-74
2023/05/22 01:07:53;;;;;;;10.80;7.80;;;14.40;99.90;14.90;93782.00;;;;7392941;19;20140;-74
2023/05/22 01:10:28;;;;;;;9.20;7.75;;;14.40;1.00;14.90;93777.00;;;;7398478;19;20204;-74
2023/05/22 01:13:55;;;;;;;10.77;8.07;;;14.40;1.00;14.80;93794.00;;;;7402136;19;20192;-74
2023/05/22 01:16:53;;;;;;;9.98;8.98;;;14.30;1.00;14.90;93770.00;;;;7400959;19;20192;-77
2023/05/22 01:19:52;;;;;;;9.30;8.30;;;14.30;1.00;14.90;93813.00;;;;7402310;19;20487;-75
2023/05/22 01:22:57;;;;;;;12.02;9.07;;;14.30;1.00;14.80;93820.00;;;;7399661;19;20140;-74
2023/05/22 01:26:02;;;;;;;13.82;9.25;;;14.30;1.00;14.90;93828.00;;;;7401529;19;20133;-76
2023/05/22 01:29:19;;;;;;;11.02;8.25;;;14.20;1.00;14.70;93818.00;;;;7403083;19;20491;-75
2023/05/22 01:31:49;;;;;;;13.57;8.77;;;14.20;1.00;14.50;93818.00;;;;7401627;19;20141;-75
2023/05/22 01:34:25;;;;;;;11.30;8.88;;;14.20;1.00;14.60;93824.00;;;;7399592;19;20129;-73
2023/05/22 01:37:01;;;;;;;10.80;8.68;;;14.10;1.00;14.70;93800.00;;;;7399418;19;20165;-76
2023/05/22 01:39:29;;;;;;;10.02;8.55;;;14.10;1.00;14.70;93801.00;;;;7401543;19;20585;-75
2023/05/22 01:42:04;;;;;;;9.98;8.43;;;14.10;1.00;14.70;93821.00;;;;7399164;19;20140;-75
2023/05/22 01:44:31;;;;;;;12.02;9.20;;;14.10;1.00;14.70;93817.00;;;;7399793;19;20204;-73
2023/05/22 01:47:07;;;;;;;11.32;9.20;;;14.10;1.00;14.60;93817.00;;;;7399955;19;20129;-75
2023/05/22 01:49:35;;;;;;;9.65;8.73;;;14.10;1.00;14.70;93798.00;;;;7400553;19;20160;-76
2023/05/22 01:52:28;;;;;;;14.40;9.32;;;14.10;1.00;14.70;93815.00;;;;7399541;19;20148;-73
2023/05/22 01:55:17;;;;;;;12.48;9.80;;;14.00;1.00;14.70;93816.00;;;;7399639;19;20596;-73
2023/05/22 01:58:32;;;;;;;10.50;9.23;;;14.00;1.00;14.80;93817.00;;;;7400455;19;20173;-74
2023/05/22 02:01:10;;;;;;;9.85;8.85;;;14.00;1.00;14.90;93827.00;;;;7396901;19;20531;-74
2023/05/22 02:03:50;;;;;;;11.85;9.60;;;14.10;1.00;14.80;93824.00;;;;7399561;19;20148;-74
2023/05/22 02:06:31;;;;;;;9.10;8.15;;;14.10;1.00;14.90;93804.00;;;;7399204;19;20129;-74
2023/05/22 02:09:07;;;;;;;12.90;9.38;;;14.10;1.00;14.60;93809.00;;;;7398879;19;20488;-74
2023/05/22 02:11:49;;;;;;;14.85;9.70;;;14.10;1.00;14.20;93832.00;;;;7400576;19;20151;-75
2023/05/22 02:14:17;;;;;;;13.02;9.27;;;13.90;1.00;13.70;93830.00;;;;7399703;19;20161;-74
2023/05/22 02:16:52;;;;;;;10.80;9.20;;;13.70;1.00;13.50;93841.00;;;;7399730;19;20155;-74
2023/05/22 02:19:19;;;;;;;14.98;9.63;;;13.60;4.60;13.40;93818.00;;;;7400034;19;20125;-73
2023/05/22 02:21:53;;;;;;;15.05;10.30;;;13.30;99.90;13.50;93834.00;;;;7400036;19;20493;-76
2023/05/22 02:24:22;;;;;;;11.10;9.98;;;13.20;99.90;13.40;93802.00;;;;7399816;19;20153;-75
2023/05/22 02:26:56;;;;;;;12.73;9.77;;;13.10;99.90;13.20;93829.00;;;;7399889;19;20602;-75
2023/05/22 02:29:30;;;;;;;12.65;10.18;;;12.90;1.40;13.80;93832.00;;;;7398795;19;21056;-75
2023/05/22 02:32:04;;;;;;;11.48;10.32;;;13.00;1.00;14.00;93796.00;;;;7400677;19;20137;-74
2023/05/22 02:34:31;;;;;;;12.60;10.25;;;13.10;1.00;14.00;93796.00;;;;7399440;19;20136;-75
2023/05/22 02:37:05;;;;;;;13.07;10.32;;;13.20;1.00;14.20;93802.00;;;;7397121;19;20173;-75
2023/05/22 02:39:39;;;;;;;11.00;9.85;;;13.30;99.90;14.00;93829.00;;;;7398715;19;20161;-74
2023/05/22 02:42:13;;;;;;;12.23;9.38;;;13.30;99.90;13.90;93803.00;;;;7398699;19;20153;-74
2023/05/22 02:44:40;;;;;;;11.82;9.70;;;13.20;99.90;13.90;93808.00;;;;7397367;19;20145;-75
2023/05/22 02:47:13;;;;;;;13.02;10.30;;;13.20;99.90;13.90;93821.00;;;;7399158;19;20141;-75
2023/05/22 02:49:48;;;;;;;11.65;9.55;;;13.20;1.00;14.30;93799.00;;;;7398732;19;20604;-74
2023/05/22 02:52:22;;;;;;;12.60;10.18;;;13.40;1.00;14.50;93795.00;;;;7399643;19;20139;-74
2023/05/22 02:54:49;;;;;;;13.32;10.10;;;13.50;99.90;14.40;93807.00;;;;7397543;19;20161;-73
2023/05/22 02:57:16;;;;;;;11.10;9.73;;;13.50;99.90;14.60;93816.00;;;;7397307;19;20226;-74
2023/05/22 02:59:51;;;;;;;13.15;10.25;;;13.60;99.90;14.50;93798.00;;;;7397899;19;20615;-75
2023/05/22 03:02:18;;;;;;;10.95;9.85;;;13.60;99.90;14.50;93795.00;;;;7396279;19;20204;-77
2023/05/22 03:04:52;;;;;;;12.20;10.43;;;13.70;99.90;14.50;93800.00;;;;7399697;19;20121;-77
2023/05/22 03:07:20;;;;;;;13.43;10.85;;;13.70;99.90;14.50;93827.00;;;;7395963;19;20648;-75
2023/05/22 03:10:07;;;;;;;12.90;10.57;;;13.80;99.90;14.70;93791.00;;;;7397097;19;20636;-76
2023/05/22 03:12:43;;;;;;;12.30;9.73;;;13.80;99.90;15.00;93788.00;;;;7396994;19;21799;-74
2023/05/22 03:15:17;;;;;;;11.30;9.90;;;14.00;99.90;14.80;93818.00;;;;7392573;19;20152;-75
2023/05/22 03:17:45;;;;;;;11.40;9.40;;;14.00;99.90;14.30;93784.00;;;;7397474;19;20133;-75
2023/05/22 03:20:19;;;;;;;10.60;9.50;;;14.00;99.90;14.40;93818.00;;;;7398803;19;20215;-77
2023/05/22 03:22:53;;;;;;;11.45;9.90;;;13.90;99.90;14.50;93821.00;;;;7399132;19;20127;-76
2023/05/22 03:25:27;;;;;;;13.13;9.80;;;13.80;99.90;14.50;93791.00;;;;7397180;19;20147;-73
2023/05/22 03:27:54;;;;;;;13.13;9.68;;;13.80;99.90;14.60;93818.00;;;;7389480;19;20153;-74
2023/05/22 03:30:28;;;;;;;12.40;9.82;;;13.90;99.90;14.70;93810.00;;;;7395724;19;20145;-75
2023/05/22 03:32:55;;;;;;;10.98;9.80;;;13.90;99.90;14.70;93805.00;;;;7394201;19;20520;-75
2023/05/22 03:35:29;;;;;;;11.20;9.55;;;14.00;99.90;14.50;93807.00;;;;7393452;19;20156;-77
2023/05/22 03:37:56;;;;;;;11.23;10.02;;;13.90;99.90;14.80;93820.00;;;;7397961;19;20152;-75
2023/05/22 03:40:23;;;;;;;12.38;9.82;;;13.90;99.90;14.70;93799.00;;;;7398432;19;20121;-74
2023/05/22 03:42:57;;;;;;;10.13;9.15;;;13.90;99.90;14.40;93795.00;;;;7396450;19;20152;-74
2023/05/22 03:45:24;;;;;;;11.32;10.05;;;13.80;99.90;14.10;93807.00;;;;7398387;19;20136;-75
2023/05/22 03:47:51;;;;;;;12.05;10.10;;;13.70;99.90;14.20;93817.00;;;;7391154;19;20561;-73
2023/05/22 03:50:25;;;;;;;12.35;9.80;;;13.60;99.90;14.60;93813.00;;;;7396553;19;20152;-76
2023/05/22 03:52:52;;;;;;;11.20;10.00;;;13.70;99.90;14.20;93822.00;;;;7396997;19;20169;-75
2023/05/22 03:55:26;;;;;;;17.08;9.40;;;13.70;99.90;14.10;93801.00;;;;7395788;19;20145;-74
2023/05/22 03:58:00;;;;;;;12.02;9.98;;;13.60;99.90;14.00;93829.00;;;;7391791;19;20137;-76
2023/05/22 04:00:34;;;;;;;10.07;9.07;;;13.60;99.90;13.90;93836.00;;;;7392194;19;21061;-74
2023/05/22 04:03:11;;;;;;;10.40;9.10;;;13.50;1.00;14.10;93833.00;;;;7396994;19;20493;-75
2023/05/22 04:05:39;;;;;;;11.50;8.90;;;13.40;1.00;14.10;93798.00;;;;7403595;19;20592;-74
2023/05/22 04:08:07;;;;;;;11.25;9.13;;;13.40;1.00;14.30;93816.00;;;;7400752;19;20651;-74
2023/05/22 04:10:45;;;;;;;10.73;9.35;;;13.40;1.00;14.40;93828.00;;;;7400459;19;20489;-75
2023/05/22 04:13:26;;;;;;;10.45;8.88;;;13.50;1.00;14.40;93781.00;;;;7385766;19;20136;-75
2023/05/22 04:15:53;;;;;;;11.40;9.27;;;13.60;99.90;14.50;93819.00;;;;7378933;19;20211;-76
2023/05/22 04:18:27;;;;;;;10.35;9.02;;;13.60;99.90;14.30;93793.00;;;;7387002;19;20605;-74
2023/05/22 04:21:01;;;;;;;13.57;8.95;;;13.70;99.90;14.40;93803.00;;;;7387396;19;20129;-76
2023/05/22 04:23:35;;;;;;;13.32;9.68;;;13.70;99.90;14.20;93828.00;;;;7386753;19;20624;-75
2023/05/22 04:26:09;;;;;;;10.65;8.90;;;13.70;99.90;14.40;93832.00;;;;7386378;19;20145;-76
2023/05/22 04:28:44;;;;;;;10.85;9.13;;;13.70;99.90;14.50;93832.00;;;;7386528;19;20615;-76
2023/05/22 04:31:18;;;;;;;13.50;9.02;;;13.70;99.90;14.50;93806.00;;;;7385961;19;20151;-74
2023/05/22 04:33:53;;;;;;;12.18;9.70;;;13.70;99.90;15.00;93790.00;;;;7388348;19;20640;-74
2023/05/22 04:36:29;;;;;;;12.07;9.63;;;13.80;99.90;14.80;93832.00;;;;7389863;19;20148;-75
2023/05/22 04:39:03;;;;;;;11.20;8.63;;;13.80;99.90;15.00;93800.00;;;;7390346;19;20155;-75
2023/05/22 04:41:37;;;;;;;11.23;9.57;;;14.00;99.90;15.50;93839.00;;;;7389929;19;20559;-75
2023/05/22 04:44:06;;;;;;;10.70;9.43;;;14.10;99.90;15.40;93839.00;;;;7390672;19;20170;-74
2023/05/22 04:46:42;;;;;;;12.65;9.40;;;14.20;99.90;15.60;93821.00;;;;7391002;19;20537;-75
2023/05/22 04:49:10;;;;;;;11.52;9.23;;;14.40;99.90;15.80;93825.00;;;;7391682;19;20125;-74
2023/05/22 04:51:44;;;;;;;10.70;8.93;;;14.50;95.40;15.80;93820.00;;;;7390819;19;20132;-74
2023/05/22 04:54:19;;;;;;;11.73;8.55;;;14.70;43.80;15.90;93797.00;;;;7389233;19;20619;-74
2023/05/22 04:56:47;;;;;;;11.25;8.90;;;14.90;5.90;16.00;93830.00;;;;7390345;19;20503;-75
2023/05/22 04:59:22;;;;;;;14.60;8.75;;;15.00;1.00;15.90;93806.00;;;;7389552;19;20151;-74
2023/05/22 05:01:57;;;;;;;11.77;9.02;;;15.10;1.00;16.00;93830.00;;;;7389206;19;20257;-74
2023/05/22 05:04:24;;;;;;;10.48;8.73;;;15.20;1.00;16.00;93814.00;;;;7389108;19;20535;-74
2023/05/22 05:06:58;;;;;;;13.18;8.73;;;15.30;1.00;16.10;93827.00;;;;7389020;19;20137;-73
2023/05/22 05:09:25;;;;;;;10.55;7.95;;;15.40;1.00;16.20;93800.00;;;;7389117;19;20133;-74
2023/05/22 05:12:07;;;;;;;10.98;8.48;;;15.40;1.00;16.40;93830.00;;;;7390982;19;20190;-74
2023/05/22 05:14:35;;;;;;;9.13;8.23;;;15.50;1.00;16.40;93805.00;;;;7388431;19;20603;-73
2023/05/22 05:17:09;;;;;;;14.98;9.00;;;15.60;1.00;16.50;93803.00;;;;7391415;19;20143;-75
2023/05/22 05:19:36;;;;;;;12.60;8.70;;;15.60;1.00;16.70;93819.00;;;;7389710;19;20482;-74
2023/05/22 05:22:10;;;;;;;9.60;8.55;;;15.70;1.00;16.80;93800.00;;;;7389872;19;20133;-73
2023/05/22 05:24:38;;;;;;;9.98;8.98;;;15.70;1.00;17.00;93815.00;;;;7388567;19;20215;-73
2023/05/22 05:27:12;;;;;;;9.35;8.45;;;15.90;1.00;17.20;93809.00;;;;7388875;19;20197;-74
2023/05/22 05:29:46;;;;;;;11.15;8.93;;;16.00;1.00;17.50;93812.00;;;;7388892;19;20611;-74
2023/05/22 05:32:21;;;;;;;9.93;8.93;;;16.10;1.00;17.80;93828.00;;;;7387883;19;20144;-74
2023/05/22 05:34:50;;;;;;;11.77;9.15;;;16.30;1.00;18.10;93824.00;;;;7388766;19;20165;-74
2023/05/22 05:37:24;;;;;;;10.90;8.80;;;16.50;1.00;18.30;93806.00;;;;7390081;19;20593;-75
2023/05/22 05:39:52;;;;;;;9.45;8.55;;;16.70;1.00;18.40;93802.00;;;;7388707;19;20133;-74
2023/05/22 05:42:20;;;;;;;10.90;8.35;;;16.90;1.00;18.50;93834.00;;;;7390800;19;21680;-72
2023/05/22 05:44:54;;;;;;;11.13;8.40;;;17.00;1.00;18.80;93834.00;;;;7387852;19;20152;-77
2023/05/22 05:47:29;;;;;;;11.18;8.10;;;17.20;1.00;19.10;93824.00;;;;7388669;19;20144;-72
2023/05/22 05:50:03;;;;;;;11.43;8.63;;;17.30;99.90;19.20;93831.00;;;;7389433;19;20132;-75
2023/05/22 05:52:32;;;;;;;9.50;7.68;;;17.50;99.90;19.20;93818.00;;;;7387255;19;20140;-73
2023/05/22 05:55:06;;;;;;;11.00;8.10;;;17.70;99.90;19.20;93837.00;;;;7387722;19;20148;-73
2023/05/22 05:57:34;;;;;;;10.15;8.02;;;18.00;99.90;19.80;93827.00;;;;7383661;19;20631;-73
2023/05/22 06:00:12;;;;;;;11.07;7.60;;;18.30;8.90;20.10;93826.00;;;;7387909;19;20134;-74
2023/05/22 06:02:40;;;;;;;12.35;8.05;;;18.60;1.00;20.40;93819.00;;;;7387332;19;20176;-74
2023/05/22 06:05:18;;;;;;;9.57;7.45;;;18.90;1.00;21.10;93832.00;;;;7388167;19;20555;-73
2023/05/22 06:07:47;;;;;;;10.18;7.80;;;19.20;1.00;21.10;93826.00;;;;7386915;19;20137;-74
2023/05/22 06:10:28;;;;;;;9.20;7.80;;;19.60;1.00;21.50;93809.00;;;;7387161;19;20180;-74
2023/05/22 06:13:02;;;;;;;10.15;7.65;;;20.00;1.00;21.70;93809.00;;;;7387184;19;20160;-73
2023/05/22 06:15:36;;;;;;;8.68;7.57;;;20.20;1.00;21.60;93835.00;;;;7382451;19;20148;-73
2023/05/22 06:18:10;;;;;;;7.70;6.93;;;20.30;1.00;22.20;93832.00;;;;7386193;19;20129;-74
2023/05/22 06:20:44;;;;;;;8.70;7.65;;;20.50;1.00;22.40;93833.00;;;;7388794;19;20162;-73
2023/05/22 06:23:19;;;;;;;11.82;7.65;;;20.80;99.90;22.40;93841.00;;;;7386474;19;20263;-75
2023/05/22 06:25:46;;;;;;;10.43;7.78;;;21.10;99.90;22.40;93836.00;;;;7386326;19;20149;-73
2023/05/22 06:28:20;;;;;;;8.20;7.38;;;21.20;99.90;22.50;93838.00;;;;7387075;19;20172;-73
2023/05/22 06:30:48;;;;;;;7.95;7.15;;;21.40;99.90;23.10;93846.00;;;;7387799;19;20149;-73
2023/05/22 06:33:22;;;;;;;8.48;7.68;;;21.40;99.90;22.40;93851.00;;;;7386436;19;20164;-73
2023/05/22 06:35:50;;;;;;;10.20;7.95;;;21.10;99.90;22.00;93854.00;;;;7388634;19;20515;-72
2023/05/22 06:38:25;;;;;;;8.50;6.90;;;20.80;99.90;21.90;93841.00;;;;7388714;19;20128;-73
2023/05/22 06:40:52;;;;;;;8.85;6.97;;;20.70;99.90;22.90;93838.00;;;;7386483;19;20144;-72
2023/05/22 06:43:26;;;;;;;8.68;7.55;;;20.90;99.90;23.20;93845.00;;;;7388123;19;20196;-74
2023/05/22 06:45:54;;;;;;;9.75;7.40;;;21.00;99.90;24.30;93841.00;;;;7386417;19;20149;-72
2023/05/22 06:48:34;;;;;;;8.60;7.70;;;21.30;99.90;23.90;93837.00;;;;7388846;19;20147;-73
2023/05/22 06:51:10;;;;;;;8.30;7.50;;;21.50;99.90;24.50;93825.00;;;;7387198;19;20510;-75
2023/05/22 06:53:45;;;;;;;9.77;7.20;;;21.70;99.90;24.50;93834.00;;;;7387370;19;20163;-73
2023/05/22 06:56:19;;;;;;;8.98;8.00;;;21.90;99.90;24.70;93841.00;;;;7384735;19;20584;-73
2023/05/22 06:58:53;;;;;;;8.07;7.25;;;22.00;99.90;24.70;93825.00;;;;7383360;19;20149;-73
2023/05/22 07:01:21;;;;;;;8.73;7.82;;;22.20;99.90;24.50;93840.00;;;;7382467;19;20500;-73
2023/05/22 07:04:00;;;;;;;9.73;8.68;;;22.00;99.90;24.60;93850.00;;;;7387019;19;20191;-74
2023/05/22 07:06:41;;;;;;;9.35;8.27;;;22.20;99.90;24.20;93862.00;;;;7387281;19;20149;-73
2023/05/22 07:09:12;;;;;;;8.80;7.75;;;22.40;99.90;24.50;93859.00;;;;7384949;19;20143;-73
2023/05/22 07:11:52;;;;;;;8.70;7.78;;;22.60;99.90;24.30;93877.00;;;;7386491;19;20200;-73
2023/05/22 07:14:26;;;;;;;8.57;7.78;;;22.70;99.90;23.90;93891.00;;;;7385722;19;20149;-73
2023/05/22 07:17:00;;;;;;;9.52;7.90;;;22.60;99.90;23.30;93897.00;;;;7387905;19;20133;-72
2023/05/22 07:19:27;;;;;;;30.75;8.77;;;22.50;99.90;23.10;93882.00;;;;7384951;19;20207;-73
2023/05/22 07:22:01;;;;;;;9.75;8.25;;;22.20;99.90;22.80;93883.00;;;;7386937;19;20135;-73
2023/05/22 07:24:29;;;;;;;8.90;8.02;;;22.00;99.90;23.30;93889.00;;;;7385626;19;20220;-73
2023/05/22 07:27:04;;;;;;;8.77;7.90;;;21.90;99.90;23.90;93876.00;;;;7385492;19;20219;-73
2023/05/22 07:29:31;;;;;;;13.93;7.65;;;22.10;99.90;24.70;93886.00;;;;7383183;19;20484;-73
2023/05/22 07:32:07;;;;;;;8.90;8.02;;;22.30;99.90;24.20;93899.00;;;;7384674;19;20156;-73
2023/05/22 07:34:34;;;;;;;8.52;7.53;;;22.50;99.90;23.70;93890.00;;;;7385098;19;20156;-72
2023/05/22 07:37:13;;;;;;;10.95;7.82;;;22.30;99.90;23.10;93876.00;;;;7385054;19;20179;-73
2023/05/22 07:39:41;;;;;;;8.50;7.70;;;22.20;99.90;22.90;93904.00;;;;7388052;19;20152;-73
2023/05/22 07:42:17;;;;;;;10.23;8.35;;;22.00;99.90;22.80;93890.00;;;;7391590;19;20151;-73
2023/05/22 07:44:51;;;;;;;9.68;8.43;;;21.80;99.90;23.80;93889.00;;;;7390757;19;20460;-72
2023/05/22 07:47:25;;;;;;;10.82;8.18;;;21.80;99.90;23.90;93897.00;;;;7389666;19;20160;-73
2023/05/22 07:49:53;;;;;;;10.13;9.05;;;21.90;99.90;23.20;93902.00;;;;7390274;19;20160;-74
2023/05/22 07:52:27;;;;;;;10.10;9.07;;;21.90;99.90;23.10;93908.00;;;;7389905;19;20162;-73
2023/05/22 07:55:01;;;;;;;10.80;8.63;;;21.90;99.90;22.70;93903.00;;;;7391352;19;20151;-73
2023/05/22 07:57:29;;;;;;;10.20;8.88;;;21.90;99.90;22.70;93892.00;;;;7391451;19;20144;-74
2023/05/22 07:59:58;;;;;;;9.10;8.27;;;21.80;99.90;22.80;93900.00;;;;7390310;19;20624;-74
2023/05/22 08:02:32;;;;;;;9.43;8.50;;;21.90;99.90;23.00;93909.00;;;;7390612;19;20243;-73
2023/05/22 08:05:01;;;;;;;10.48;9.20;;;22.00;99.90;23.00;93922.00;;;;7391880;19;20193;-73
2023/05/22 08:07:36;;;;;;;9.38;7.72;;;22.10;99.90;22.80;93896.00;;;;7390754;19;20188;-73
2023/05/22 08:10:13;;;;;;;10.73;8.35;;;22.00;99.90;22.60;93878.00;;;;7390569;19;20164;-72
2023/05/22 08:12:54;;;;;;;11.57;8.95;;;22.00;99.90;22.60;93904.00;;;;7391376;19;20612;-73
2023/05/22 08:15:28;;;;;;;10.77;9.68;;;22.00;99.90;22.40;93930.00;;;;7390491;19;20177;-73
2023/05/22 08:17:55;;;;;;;10.30;9.15;;;21.90;99.90;22.00;93901.00;;;;7389665;19;20488;-73
2023/05/22 08:20:29;;;;;;;10.10;8.75;;;21.80;99.90;21.90;93922.00;;;;7390814;19;20192;-71
2023/05/22 08:22:58;;;;;;;9.95;8.13;;;21.60;99.90;21.70;93879.00;;;;7390153;19;20623;-72
2023/05/22 08:25:32;;;;;;;12.68;8.65;;;21.50;99.90;21.90;93933.00;;;;7390327;19;20959;-73
2023/05/22 08:28:06;;;;;;;10.07;8.98;;;21.40;99.90;22.00;93900.00;;;;7389996;19;20224;-72
2023/05/22 08:30:40;;;;;;;11.88;8.32;;;21.40;99.90;22.00;93906.00;;;;7390113;19;20157;-73
2023/05/22 08:33:15;;;;;;;10.63;9.13;;;21.40;99.90;22.10;93925.00;;;;7392031;19;20589;-73
2023/05/22 08:35:49;;;;;;;10.88;8.88;;;21.40;99.90;22.30;93898.00;;;;7389785;19;20144;-72
2023/05/22 08:38:17;;;;;;;11.95;9.10;;;21.50;99.90;22.10;93921.00;;;;7390993;19;20135;-73
2023/05/22 08:40:56;;;;;;;11.63;8.68;;;21.50;99.90;22.30;93869.00;;;;7391666;19;20156;-74
2023/05/22 08:43:23;;;;;;;10.30;8.65;;;21.50;99.90;22.90;93915.00;;;;7390405;19;20137;-76
2023/05/22 08:46:07;;;;;;;11.40;8.82;;;21.80;99.90;23.20;93904.00;;;;7389667;19;20134;-72
2023/05/22 08:48:37;;;;;;;11.52;9.65;;;22.00;99.90;23.50;93900.00;;;;7387216;19;20172;-75
2023/05/22 08:51:17;;;;;;;11.25;8.63;;;22.30;99.90;23.70;93907.00;;;;7388011;19;20143;-73
2023/05/22 08:53:56;;;;;;;9.57;8.63;;;22.60;99.90;23.90;93911.00;;;;7387405;19;20181;-74
2023/05/22 08:56:33;;;;;;;10.18;9.07;;;22.70;99.90;24.20;93900.00;;;;7389529;19;20589;-73
2023/05/22 08:59:23;;;;;;;10.77;9.68;;;23.00;99.90;24.40;93902.00;;;;7387375;19;20153;-73
2023/05/22 09:01:52;;;;;;;10.63;9.52;;;23.30;99.90;24.70;93897.00;;;;7388520;19;20159;-74
2023/05/22 09:04:27;;;;;;;11.45;10.32;;;23.60;99.90;25.10;93896.00;;;;7387769;19;20144;-74
2023/05/22 09:06:56;;;;;;;12.55;10.23;;;23.80;99.90;25.50;93864.00;;;;7387797;19;20132;-74
2023/05/22 09:09:35;;;;;;;13.57;9.80;;;24.00;99.90;25.30;93901.00;;;;7387047;19;20504;-75
2023/05/22 09:12:15;;;;;;;9.68;8.77;;;24.20;99.90;25.90;93888.00;;;;7387492;19;20534;-73
2023/05/22 09:14:50;;;;;;;11.80;8.82;;;24.50;99.90;27.20;93873.00;;;;7386946;19;22222;-74
2023/05/22 09:17:20;;;;;;;10.95;9.02;;;24.90;99.90;28.00;93891.00;;;;7387246;19;20541;-73
2023/05/22 09:19:48;;;;;;;15.32;9.02;;;25.50;99.90;26.90;93892.00;;;;7388201;19;20518;-74
2023/05/22 09:22:22;;;;;;;9.77;8.85;;;26.00;99.90;27.50;93879.00;;;;7388437;19;21655;-76
2023/05/22 09:24:51;;;;;;;9.55;8.02;;;26.30;99.90;27.30;93835.00;;;;7387923;19;20146;-73
2023/05/22 09:27:26;;;;;;;9.18;8.27;;;26.60;99.90;28.00;93884.00;;;;7388096;19;20137;-73
2023/05/22 09:29:55;;;;;;;10.23;7.88;;;26.80;99.90;27.20;93872.00;;;;7385498;19;20149;-74
2023/05/22 09:32:30;;;;;;;12.43;7.97;;;26.80;99.90;25.10;93865.00;;;;7388045;19;20133;-74
2023/05/22 09:35:05;;;;;;;8.93;8.02;;;26.70;99.90;26.50;93883.00;;;;7386181;19;20149;-74
2023/05/22 09:37:40;;;;;;;8.02;7.28;;;26.60;99.90;26.60;93871.00;;;;7386691;19;20767;-75
2023/05/22 09:40:14;;;;;;;8.32;7.53;;;26.50;99.90;26.70;93860.00;;;;7388277;19;20139;-74
2023/05/22 09:42:48;;;;;;;7.70;7.00;;;26.50;99.90;27.10;93897.00;;;;7386695;19;20693;-75
2023/05/22 09:45:23;;;;;;;9.00;7.95;;;26.30;99.90;26.30;93898.00;;;;7386496;19;20144;-74
2023/05/22 09:47:58;;;;;;;11.60;7.53;;;26.10;99.90;26.30;93900.00;;;;7387164;19;20128;-76
2023/05/22 09:50:32;;;;;;;8.73;7.10;;;25.60;99.90;26.70;93869.00;;;;7387279;19;20265;-73
2023/05/22 09:53:03;;;;;;;8.10;7.22;;;25.30;99.90;27.70;93867.00;;;;7387844;19;20129;-72
2023/05/22 09:55:38;;;;;;;8.63;7.82;;;25.40;99.90;27.50;93893.00;;;;7385965;19;20149;-73
2023/05/22 09:58:18;;;;;;;8.05;7.22;;;25.60;99.90;25.80;93879.00;;;;7385663;19;20144;-75
2023/05/22 10:00:55;;;;;;;8.20;7.40;;;25.70;99.90;26.10;93852.00;;;;7380545;19;20244;-76
2023/05/22 10:03:32;;;;;;;10.27;7.70;;;25.70;99.90;27.20;93871.00;;;;7386014;19;20145;-74
2023/05/22 10:06:10;;;;;;;8.45;7.57;;;25.70;99.90;28.50;93855.00;;;;7385990;19;20135;-74
2023/05/22 10:08:55;;;;;;;8.57;6.55;;;26.20;99.90;28.90;93874.00;;;;7385314;19;20586;-73
2023/05/22 10:11:39;;;;;;;7.70;6.90;;;26.50;99.90;28.70;93866.00;;;;7385679;19;20224;-73
2023/05/22 10:14:08;;;;;;;7.97;7.25;;;26.40;99.90;28.80;93869.00;;;;7386031;19;20156;-74
2023/05/22 10:16:44;;;;;;;7.85;7.15;;;26.30;1.00;27.70;93863.00;;;;7385058;19;20148;-74
2023/05/22 10:19:12;;;;;;;7.43;6.72;;;26.40;99.90;28.80;93868.00;;;;7385008;19;20596;-75
2023/05/22 10:21:48;;;;;;;9.25;7.43;;;26.50;99.90;29.00;93861.00;;;;7386234;19;20139;-75
2023/05/22 10:24:24;;;;;;;10.57;6.97;;;26.80;1.00;27.60;93872.00;;;;7384977;19;20125;-74
2023/05/22 10:26:59;;;;;;;8.15;7.40;;;27.10;1.00;27.00;93851.00;;;;7387316;19;20136;-75
2023/05/22 10:29:53;;;;;;;7.65;6.93;;;27.20;1.00;27.70;93857.00;;;;7384412;19;20481;-75
2023/05/22 10:32:39;;;;;;;7.72;6.75;;;27.40;1.00;28.70;93854.00;;;;7385329;19;20156;-76
2023/05/22 10:35:25;;;;;;;8.23;6.85;;;27.60;1.00;28.10;93854.00;;;;7382308;19;20619;-76
2023/05/22 10:38:25;;;;;;;10.02;7.95;;;27.80;1.00;27.50;93862.00;;;;7386073;19;20187;-74
2023/05/22 10:41:01;;;;;;;12.57;6.93;;;28.20;1.00;26.60;93808.00;;;;7386547;19;20226;-76
2023/05/22 10:43:42;;;;;;;9.82;7.32;;;28.30;1.00;27.70;93851.00;;;;7385848;19;20165;-76
2023/05/22 10:46:11;;;;;;;12.52;7.05;;;28.40;1.00;27.90;93867.00;;;;7387632;19;20132;-77
2023/05/22 10:48:48;;;;;;;11.57;6.80;;;28.40;99.90;29.20;93872.00;;;;7384796;19;20167;-81
2023/05/22 10:51:23;;;;;;;6.97;6.38;;;28.50;99.90;28.80;93868.00;;;;7386249;19;21411;-76
2023/05/22 10:54:04;;;;;;;12.90;7.63;;;28.40;1.00;27.60;93884.00;;;;7386740;19;20144;-74
2023/05/22 10:56:39;;;;;;;7.80;6.88;;;27.90;99.90;27.90;93853.00;;;;7386196;19;20148;-73
2023/05/22 10:59:13;;;;;;;9.75;7.47;;;27.50;1.00;28.60;93865.00;;;;7386882;19;22973;-73
2023/05/22 11:01:41;;;;;;;8.25;7.45;;;27.80;99.90;29.50;93864.00;;;;7385633;19;20194;-73
2023/05/22 11:04:17;;;;;;;8.57;7.47;;;28.10;1.00;29.40;93824.00;;;;7385373;19;20520;-73
2023/05/22 11:07:00;;;;;;;8.40;7.07;;;28.20;1.00;29.30;93860.00;;;;7385947;19;20158;-73
2023/05/22 11:09:44;;;;;;;8.50;7.40;;;28.10;1.00;27.80;93882.00;;;;7386819;19;20131;-74
2023/05/22 11:12:27;;;;;;;7.70;6.90;;;27.90;1.00;26.80;93878.00;;;;7384371;19;20171;-74
2023/05/22 11:15:16;;;;;;;7.72;7.03;;;27.60;1.00;26.30;93857.00;;;;7384650;19;20168;-75
2023/05/22 11:17:50;;;;;;;7.93;7.10;;;27.00;1.00;25.80;93829.00;;;;7387016;19;20132;-76
2023/05/22 11:20:25;;;;;;;9.73;7.38;;;26.70;1.00;24.50;93878.00;;;;7385971;19;20465;-74
2023/05/22 11:23:04;;;;;;;10.10;6.95;;;26.20;1.00;24.00;93881.00;;;;7385137;19;20525;-74
2023/05/22 11:25:40;;;;;;;7.32;6.50;;;25.50;1.00;24.70;93889.00;;;;7386017;19;20628;-75